Bovington Camp, United Kingdom
Current Conditions -  °F | °C
As of 8:50 PM on Tuesday 25 Nov 2014 (Local Time) from EGHH Reporting Station
Drizzle Drizzle  
Wind Chill: 40°   Ceiling: 1700
Heat Index: 45°   Visibility: 2.8mi
Dew Point: 45°   Wind: 9mph
Humidity: 100%   Direction: 30°NNE
Pressure: 30"   Gusts: NA
Location:  50.7°N, 2.24°W
Report Text: EGHH 252050Z 03008KT 4500 DZ BR BKN017 07/07 Q1016
Loading
Personal Weather Stations






























Interactive Weather Map New forecast layout! Learn more

10-Day Weather Forecast

Advertisements
Track Severe Weather on mobile